Time;durP1;ratioP1;P1;durP2;ratioP2;P2;SDS_P1;SDS_P2;PMS_P1;PMS_P2;Temp;Humidity;BMP_temperature;BMP_pressure;BME280_temperature;BME280_humidity;BME280_pressure;Samples;Min_cycle;Max_cycle;Signal;HPM_P1;HPM_P2
2022/06/01 00:01:18;;;;;;;3.35;1.08;;;12.30;99.90;;;;;;5056259;28;20025;-82
2022/06/01 00:03:44;;;;;;;3.78;1.00;;;12.20;99.90;;;;;;5056135;28;20104;-82
2022/06/01 00:06:10;;;;;;;2.15;1.40;;;12.00;99.90;;;;;;5054844;28;20532;-82
2022/06/01 00:08:37;;;;;;;1.80;1.10;;;11.80;99.90;;;;;;5056194;28;20532;-82
2022/06/01 00:11:02;;;;;;;1.92;1.20;;;11.60;99.90;;;;;;5054813;28;20021;-82
2022/06/01 00:13:29;;;;;;;2.22;1.23;;;11.50;99.90;;;;;;5055838;28;20028;-82
2022/06/01 00:15:55;;;;;;;1.80;1.00;;;11.40;99.90;;;;;;5054733;28;20111;-82
2022/06/01 00:18:22;;;;;;;2.20;1.30;;;11.30;99.90;;;;;;5055958;28;20051;-82
2022/06/01 00:20:48;;;;;;;2.78;1.10;;;11.20;99.90;;;;;;5054683;28;20493;-82
2022/06/01 00:23:14;;;;;;;1.90;1.33;;;11.30;99.90;;;;;;5054481;28;20032;-82
2022/06/01 00:25:41;;;;;;;2.58;1.30;;;11.30;99.90;;;;;;5054517;28;20037;-82
2022/06/01 00:28:07;;;;;;;2.38;1.45;;;11.30;99.90;;;;;;5054400;28;20029;-82
2022/06/01 00:30:33;;;;;;;2.63;1.30;;;11.40;99.90;;;;;;5055849;28;20021;-82
2022/06/01 00:32:59;;;;;;;2.45;1.50;;;11.40;99.90;;;;;;5056129;28;20036;-82
2022/06/01 00:35:25;;;;;;;1.70;1.20;;;11.40;99.90;;;;;;5055807;28;20098;-83
2022/06/01 00:37:50;;;;;;;1.98;1.30;;;11.40;99.90;;;;;;5054392;28;20021;-83
2022/06/01 00:40:19;;;;;;;1.85;1.25;;;11.30;99.90;;;;;;5055573;28;20029;-83
2022/06/01 00:42:48;;;;;;;2.60;1.20;;;11.30;99.90;;;;;;5055409;28;20048;-83
2022/06/01 00:45:16;;;;;;;1.83;1.23;;;11.30;99.90;;;;;;5055461;28;20108;-83
2022/06/01 00:47:42;;;;;;;2.42;1.50;;;11.20;99.90;;;;;;5055296;28;20031;-83
2022/06/01 00:50:13;;;;;;;2.65;1.50;;;11.10;99.90;;;;;;5055378;28;20100;-83
2022/06/01 00:52:45;;;;;;;2.13;1.20;;;11.00;99.90;;;;;;5055572;28;20023;-83
2022/06/01 00:55:25;;;;;;;1.85;1.25;;;10.90;99.90;;;;;;5055843;28;20013;-83
2022/06/01 00:57:56;;;;;;;2.47;1.50;;;10.80;99.90;;;;;;5055362;28;20431;-83
2022/06/01 01:00:25;;;;;;;2.55;1.40;;;10.80;99.90;;;;;;5055564;28;20108;-83
2022/06/01 01:02:55;;;;;;;2.25;1.20;;;10.80;99.90;;;;;;5054228;28;20071;-84
2022/06/01 01:05:21;;;;;;;1.73;1.13;;;10.90;99.90;;;;;;5043573;28;20034;-84
2022/06/01 01:07:50;;;;;;;1.98;1.00;;;10.90;99.90;;;;;;5034894;28;20474;-83
2022/06/01 01:10:16;;;;;;;2.63;1.45;;;10.90;99.90;;;;;;5034682;28;20037;-83
2022/06/01 01:15:55;;;;;;;1.73;1.23;;;11.00;99.90;;;;;;5036741;28;20024;-83
2022/06/01 01:18:28;;;;;;;2.60;1.20;;;10.90;99.90;;;;;;5048352;28;20067;-83
2022/06/01 01:21:29;;;;;;;1.92;1.30;;;10.90;99.90;;;;;;5056023;28;20451;-83
2022/06/01 01:24:09;;;;;;;1.70;1.20;;;10.90;99.90;;;;;;5054680;28;20025;-83
2022/06/01 01:26:36;;;;;;;2.37;1.00;;;10.90;99.90;;;;;;5053838;28;20032;-83
2022/06/01 01:29:09;;;;;;;2.03;1.05;;;10.90;99.90;;;;;;5052780;28;20032;-83
2022/06/01 01:31:35;;;;;;;3.05;1.33;;;10.90;99.90;;;;;;5054357;28;20021;-83
2022/06/01 01:34:01;;;;;;;1.60;1.08;;;10.80;99.90;;;;;;5053229;28;20040;-83
2022/06/01 01:36:35;;;;;;;2.88;1.20;;;10.80;99.90;;;;;;5054709;28;20430;-83
2022/06/01 01:39:09;;;;;;;2.08;1.02;;;10.80;99.90;;;;;;5054565;28;20025;-83
2022/06/01 01:41:40;;;;;;;1.35;0.90;;;10.90;99.90;;;;;;5054539;28;20556;-83
2022/06/01 01:44:23;;;;;;;1.27;0.90;;;10.90;99.90;;;;;;5054396;28;20024;-83
2022/06/01 01:46:50;;;;;;;1.40;0.98;;;11.00;99.90;;;;;;5054280;28;20025;-83
2022/06/01 01:49:24;;;;;;;1.90;1.30;;;11.00;99.90;;;;;;5053453;28;20025;-83
2022/06/01 01:51:54;;;;;;;2.22;1.33;;;10.90;99.90;;;;;;5054318;28;20021;-83
2022/06/01 01:54:50;;;;;;;2.38;1.60;;;10.90;99.90;;;;;;5054537;28;20110;-82
2022/06/01 01:57:53;;;;;;;2.42;1.55;;;10.80;99.90;;;;;;5052921;28;20056;-82
2022/06/01 02:00:25;;;;;;;1.95;1.35;;;10.80;99.90;;;;;;5052901;28;20029;-83
2022/06/01 02:02:53;;;;;;;1.73;1.20;;;10.70;99.90;;;;;;5052794;28;20112;-83
2022/06/01 02:08:25;;;;;;;1.63;1.10;;;10.70;99.90;;;;;;5054316;28;20043;-83
2022/06/01 02:13:39;;;;;;;2.60;1.50;;;10.60;99.90;;;;;;5053913;28;20052;-83
2022/06/01 02:16:05;;;;;;;1.75;1.23;;;10.60;99.90;;;;;;5053895;28;20017;-83
2022/06/01 02:18:38;;;;;;;1.98;1.40;;;10.60;99.90;;;;;;5053905;28;20021;-83
2022/06/01 02:21:09;;;;;;;2.00;1.40;;;10.60;99.90;;;;;;5054456;28;20043;-83
2022/06/01 02:23:36;;;;;;;2.22;1.15;;;10.50;99.90;;;;;;5054070;28;20025;-83
2022/06/01 02:26:02;;;;;;;3.33;1.83;;;10.50;99.90;;;;;;5052373;28;20032;-83
2022/06/01 02:28:29;;;;;;;3.50;2.50;;;10.50;99.90;;;;;;5052456;28;20029;-83
2022/06/01 02:30:55;;;;;;;3.70;2.95;;;10.50;99.90;;;;;;5053971;28;20025;-83
2022/06/01 02:33:28;;;;;;;3.92;3.22;;;10.50;99.90;;;;;;5054284;28;20025;-83
2022/06/01 02:35:58;;;;;;;6.22;3.35;;;10.50;99.90;;;;;;5053708;28;20028;-83
2022/06/01 02:38:31;;;;;;;3.63;2.53;;;10.50;99.90;;;;;;5052657;28;20021;-83
2022/06/01 02:40:59;;;;;;;3.42;2.22;;;10.50;99.90;;;;;;5052343;28;20381;-83
2022/06/01 02:43:26;;;;;;;2.67;2.10;;;10.50;99.90;;;;;;5052319;28;20029;-83
2022/06/01 02:45:52;;;;;;;3.90;2.55;;;10.50;99.90;;;;;;5052447;28;20029;-83
2022/06/01 02:48:18;;;;;;;3.20;2.13;;;10.50;99.90;;;;;;5053687;28;20032;-82
2022/06/01 02:50:44;;;;;;;4.47;1.92;;;10.50;99.90;;;;;;5052078;28;20029;-83
2022/06/01 02:53:10;;;;;;;4.00;2.15;;;10.50;99.90;;;;;;5053352;28;20088;-83
2022/06/01 02:55:35;;;;;;;2.80;1.88;;;10.60;99.90;;;;;;5052060;28;20032;-82
2022/06/01 02:58:02;;;;;;;3.03;1.70;;;10.60;99.90;;;;;;5053672;28;20032;-83
2022/06/01 03:00:40;;;;;;;4.22;1.80;;;10.60;99.90;;;;;;5052221;28;20025;-83
2022/06/01 03:03:08;;;;;;;2.15;1.38;;;10.60;99.90;;;;;;5053420;28;20025;-82
2022/06/01 03:05:37;;;;;;;2.70;1.90;;;10.60;99.90;;;;;;5053172;28;20032;-82
2022/06/01 03:08:04;;;;;;;7.28;4.53;;;10.70;99.90;;;;;;5053145;28;20017;-82
2022/06/01 03:10:30;;;;;;;7.55;5.03;;;10.70;99.90;;;;;;5051843;28;20047;-82
2022/06/01 03:12:56;;;;;;;9.57;6.47;;;10.70;99.90;;;;;;5052176;28;20059;-82
2022/06/01 03:15:29;;;;;;;7.38;4.93;;;10.80;99.90;;;;;;5052004;28;20431;-83
2022/06/01 03:17:55;;;;;;;5.82;3.92;;;10.80;99.90;;;;;;5053591;28;20037;-82
2022/06/01 03:20:22;;;;;;;2.90;1.85;;;10.80;99.90;;;;;;5053307;28;20592;-83
2022/06/01 03:22:48;;;;;;;2.78;1.80;;;10.90;99.90;;;;;;5053040;28;20029;-83
2022/06/01 03:25:17;;;;;;;2.45;1.70;;;10.80;99.90;;;;;;5051683;28;20499;-83
2022/06/01 03:27:43;;;;;;;2.47;1.70;;;10.70;99.90;;;;;;5052827;28;20048;-83
2022/06/01 03:30:12;;;;;;;2.85;1.75;;;10.70;99.90;;;;;;5053017;28;20025;-83
2022/06/01 03:32:38;;;;;;;2.97;1.50;;;10.70;99.90;;;;;;5053315;28;20024;-83
2022/06/01 03:38:28;;;;;;;2.50;1.50;;;10.80;99.90;;;;;;5055708;28;20067;-84
2022/06/01 03:40:54;;;;;;;2.88;1.67;;;10.80;99.90;;;;;;5051796;28;20397;-83
2022/06/01 03:43:20;;;;;;;2.67;1.63;;;10.80;99.90;;;;;;5053416;28;20040;-83
2022/06/01 03:45:55;;;;;;;3.67;1.80;;;10.80;99.90;;;;;;5052901;28;20025;-83
2022/06/01 03:48:27;;;;;;;3.42;1.90;;;10.70;99.90;;;;;;5053980;28;20025;-83
2022/06/01 03:50:53;;;;;;;4.85;2.38;;;10.70;99.90;;;;;;5055387;28;20056;-83
2022/06/01 03:53:19;;;;;;;6.93;5.18;;;10.60;99.90;;;;;;5056517;28;20032;-83
2022/06/01 03:55:46;;;;;;;7.50;6.20;;;10.50;99.90;;;;;;5055326;28;20021;-83
2022/06/01 03:58:17;;;;;;;6.07;5.18;;;10.50;99.90;;;;;;5056630;28;20040;-83
2022/06/01 04:00:43;;;;;;;5.88;5.03;;;10.50;99.90;;;;;;5056611;28;20029;-84
2022/06/01 04:03:09;;;;;;;4.55;3.65;;;10.50;99.90;;;;;;5056330;28;20029;-83
2022/06/01 04:05:35;;;;;;;3.00;2.70;;;10.50;99.90;;;;;;5055038;28;20056;-83
2022/06/01 04:08:02;;;;;;;2.75;1.90;;;10.60;99.90;;;;;;5056736;28;20061;-83
2022/06/01 04:10:28;;;;;;;2.78;1.42;;;10.50;99.90;;;;;;5056306;28;20017;-83
2022/06/01 04:12:53;;;;;;;2.20;1.50;;;10.60;99.90;;;;;;5054905;28;20028;-83
2022/06/01 04:15:19;;;;;;;1.83;1.20;;;10.60;99.90;;;;;;5056318;28;20025;-84
2022/06/01 04:17:45;;;;;;;1.70;1.00;;;10.60;99.90;;;;;;5056185;28;20035;-82
2022/06/01 04:20:11;;;;;;;2.72;1.08;;;10.60;99.90;;;;;;5054724;28;20086;-82
2022/06/01 04:22:42;;;;;;;2.83;1.30;;;10.50;99.90;;;;;;5056256;28;20029;-82
2022/06/01 04:25:10;;;;;;;1.50;1.02;;;10.50;99.90;;;;;;5056502;28;20070;-82
2022/06/01 04:27:38;;;;;;;2.35;1.23;;;10.50;99.90;;;;;;5054688;28;20044;-82
2022/06/01 04:30:08;;;;;;;2.53;1.35;;;10.50;99.90;;;;;;5056449;28;20104;-82
2022/06/01 04:32:33;;;;;;;2.10;1.10;;;10.50;99.90;;;;;;5054478;28;20021;-82
2022/06/01 04:35:00;;;;;;;2.58;1.50;;;10.60;99.90;;;;;;5056187;28;20021;-82
2022/06/01 04:37:26;;;;;;;1.90;1.20;;;10.60;99.90;;;;;;5056218;28;20484;-82
2022/06/01 04:39:52;;;;;;;2.25;1.38;;;10.70;99.90;;;;;;5055700;28;20025;-82
2022/06/01 04:42:18;;;;;;;3.95;1.30;;;10.70;99.90;;;;;;5055674;28;20456;-82
2022/06/01 04:44:43;;;;;;;2.25;1.40;;;10.70;99.90;;;;;;5054312;28;20184;-82
2022/06/01 04:47:10;;;;;;;2.42;1.48;;;10.70;99.90;;;;;;5054327;28;20025;-82
2022/06/01 04:49:36;;;;;;;2.92;1.15;;;10.70;99.90;;;;;;5055608;28;20049;-82
2022/06/01 04:52:02;;;;;;;1.63;1.10;;;10.70;99.90;;;;;;5054232;28;20029;-82
2022/06/01 04:54:28;;;;;;;1.90;1.17;;;10.70;99.90;;;;;;5055499;28;20029;-82
2022/06/01 04:56:54;;;;;;;3.92;1.35;;;10.70;99.90;;;;;;5055851;28;20384;-82
2022/06/01 04:59:19;;;;;;;2.75;1.52;;;10.70;99.90;;;;;;5055305;28;20021;-82
2022/06/01 05:01:45;;;;;;;2.30;1.35;;;10.70;99.90;;;;;;5054854;28;20025;-82
2022/06/01 05:04:12;;;;;;;2.47;1.50;;;10.70;99.90;;;;;;5055326;28;20099;-82
2022/06/01 05:06:37;;;;;;;3.10;1.48;;;10.70;99.90;;;;;;5053968;28;20021;-82
2022/06/01 05:09:03;;;;;;;3.97;1.70;;;10.80;99.90;;;;;;5053835;28;20028;-82
2022/06/01 05:11:29;;;;;;;3.75;2.17;;;10.80;99.90;;;;;;5055152;28;20496;-82
2022/06/01 05:13:55;;;;;;;3.28;2.00;;;10.90;99.90;;;;;;5053599;28;20067;-82
2022/06/01 05:16:20;;;;;;;2.88;2.20;;;11.00;99.90;;;;;;5055334;28;20031;-82
2022/06/01 05:18:46;;;;;;;2.95;1.80;;;11.10;99.90;;;;;;5053495;28;20021;-82
2022/06/01 05:21:12;;;;;;;3.13;2.28;;;11.10;99.90;;;;;;5054055;28;20028;-82
2022/06/01 05:23:37;;;;;;;4.47;2.85;;;11.20;99.90;;;;;;5054756;28;20025;-82
2022/06/01 05:26:04;;;;;;;4.53;2.35;;;11.30;99.90;;;;;;5054929;28;20055;-82
2022/06/01 05:28:31;;;;;;;3.10;2.28;;;11.30;99.90;;;;;;5054811;28;20025;-82
2022/06/01 05:31:09;;;;;;;3.85;3.00;;;11.30;99.90;;;;;;5054808;28;20367;-83
2022/06/01 05:33:36;;;;;;;4.28;3.03;;;11.30;99.90;;;;;;5054908;28;20024;-83
2022/06/01 05:36:02;;;;;;;4.60;3.20;;;11.30;99.90;;;;;;5055114;28;20082;-83
2022/06/01 05:38:29;;;;;;;9.18;3.15;;;11.30;99.90;;;;;;5053230;28;20025;-83
2022/06/01 05:40:54;;;;;;;4.15;3.08;;;11.40;99.90;;;;;;5053150;28;20481;-82
2022/06/01 05:43:20;;;;;;;4.45;3.13;;;11.40;99.90;;;;;;5053003;28;20074;-82
2022/06/01 05:45:46;;;;;;;8.60;3.58;;;11.50;99.90;;;;;;5054658;28;20469;-83
2022/06/01 05:48:17;;;;;;;6.30;3.58;;;11.60;99.90;;;;;;5053043;28;20033;-83
2022/06/01 05:50:43;;;;;;;;;;;11.60;99.90;;;;;;5053592;28;20025;-82
2022/06/01 05:53:10;;;;;;;6.38;3.65;;;11.70;99.90;;;;;;5054538;28;20058;-82
2022/06/01 05:55:37;;;;;;;4.95;3.13;;;11.80;99.90;;;;;;5054416;28;20016;-83
2022/06/01 05:58:24;;;;;;;5.50;3.17;;;11.90;99.90;;;;;;5054134;28;20029;-82
2022/06/01 06:00:51;;;;;;;5.07;3.05;;;12.10;99.90;;;;;;5052792;28;20028;-83
2022/06/01 06:03:18;;;;;;;5.25;3.78;;;12.20;99.90;;;;;;5052753;28;20099;-83
2022/06/01 06:08:30;;;;;;;4.45;3.10;;;12.40;99.90;;;;;;5054235;28;20039;-83
2022/06/01 06:10:56;;;;;;;3.65;2.33;;;12.50;99.90;;;;;;5053714;28;20021;-83
2022/06/01 06:13:22;;;;;;;3.55;2.42;;;12.70;99.90;;;;;;5053910;28;20079;-83
2022/06/01 06:15:48;;;;;;;3.53;2.40;;;12.90;99.90;;;;;;5052463;28;20098;-83
2022/06/01 06:18:14;;;;;;;5.80;3.08;;;13.10;99.90;;;;;;5052564;28;20021;-83
2022/06/01 06:20:45;;;;;;;3.40;2.50;;;13.20;99.90;;;;;;5052533;28;20021;-83
2022/06/01 06:23:12;;;;;;;3.97;2.83;;;13.30;99.90;;;;;;5053784;28;20370;-83
2022/06/01 06:25:40;;;;;;;6.05;2.58;;;13.40;99.90;;;;;;5053714;28;20072;-83
2022/06/01 06:28:06;;;;;;;3.47;2.22;;;13.50;99.90;;;;;;5052430;28;20469;-83
2022/06/01 06:30:32;;;;;;;4.03;2.88;;;13.70;99.90;;;;;;5052927;28;20078;-83
2022/06/01 06:32:58;;;;;;;3.63;2.63;;;13.80;99.90;;;;;;5052346;28;20021;-83
2022/06/01 06:35:24;;;;;;;7.30;3.55;;;13.90;99.90;;;;;;5053707;28;20025;-83
2022/06/01 06:37:50;;;;;;;5.30;4.47;;;14.00;99.90;;;;;;5052402;28;20053;-83
2022/06/01 06:40:16;;;;;;;6.60;4.97;;;14.10;99.90;;;;;;5052574;28;20502;-83
2022/06/01 06:42:42;;;;;;;6.00;5.15;;;14.20;99.90;;;;;;5052221;28;20036;-83
2022/06/01 06:45:08;;;;;;;7.30;5.55;;;14.20;99.90;;;;;;5054058;28;20036;-84
2022/06/01 06:47:34;;;;;;;6.38;5.07;;;14.30;99.90;;;;;;5052178;28;20025;-84
2022/06/01 06:50:01;;;;;;;7.28;5.90;;;14.50;99.90;;;;;;5053476;28;20032;-83
2022/06/01 06:52:27;;;;;;;5.97;4.57;;;14.60;99.90;;;;;;5053599;28;20079;-84
2022/06/01 06:54:53;;;;;;;7.82;4.80;;;14.60;99.90;;;;;;5053415;28;20021;-84
2022/06/01 06:57:19;;;;;;;9.65;6.55;;;14.80;99.90;;;;;;5053663;28;20389;-83
2022/06/01 06:59:44;;;;;;;8.82;5.95;;;14.90;99.90;;;;;;5052493;28;20028;-84
2022/06/01 07:02:10;;;;;;;9.77;6.00;;;15.00;99.90;;;;;;5052100;28;20025;-84
2022/06/01 07:04:36;;;;;;;6.35;5.68;;;15.10;99.90;;;;;;5053376;28;20028;-84
2022/06/01 07:07:02;;;;;;;7.85;5.03;;;15.00;99.90;;;;;;5052136;28;20025;-84
2022/06/01 07:09:28;;;;;;;7.35;5.22;;;15.10;99.90;;;;;;5053428;28;20036;-84
2022/06/01 07:11:54;;;;;;;6.63;5.30;;;15.30;99.90;;;;;;5053416;28;20021;-84
2022/06/01 07:14:20;;;;;;;6.40;5.03;;;15.40;99.90;;;;;;5052370;28;20017;-84
2022/06/01 07:16:45;;;;;;;9.43;6.53;;;15.50;99.90;;;;;;5053385;28;20020;-84
2022/06/01 07:19:11;;;;;;;8.73;6.50;;;15.60;99.90;;;;;;5053595;28;20024;-84
2022/06/01 07:21:37;;;;;;;7.57;4.97;;;15.60;99.90;;;;;;5054353;28;20079;-85
2022/06/01 07:24:06;;;;;;;7.35;4.93;;;15.70;99.90;;;;;;5054694;28;20071;-85
2022/06/01 07:26:35;;;;;;;6.40;4.15;;;15.90;99.90;;;;;;5056940;28;20071;-84
2022/06/01 07:29:01;;;;;;;11.50;4.60;;;16.00;99.90;;;;;;5058698;28;20385;-84
2022/06/01 07:31:27;;;;;;;34.00;7.57;;;16.20;99.90;;;;;;5055961;28;20021;-84
2022/06/01 07:33:53;;;;;;;12.07;4.10;;;16.30;99.90;;;;;;5055880;28;20021;-85
2022/06/01 07:36:19;;;;;;;6.95;3.45;;;16.40;99.90;;;;;;5055632;28;20412;-85
2022/06/01 07:44:25;;;;;;;3.60;2.55;;;16.60;99.90;;;;;;5059320;28;20074;-85
2022/06/01 07:46:51;;;;;;;3.83;2.53;;;16.60;99.90;;;;;;5057479;28;20029;-85
2022/06/01 07:49:19;;;;;;;3.63;2.60;;;16.70;99.90;;;;;;5056815;28;20020;-85
2022/06/01 07:51:45;;;;;;;6.22;2.75;;;16.90;99.90;;;;;;5057921;28;20504;-85
2022/06/01 07:54:11;;;;;;;5.15;2.50;;;17.00;99.90;;;;;;5057460;28;20071;-85
2022/06/01 07:56:37;;;;;;;4.55;2.40;;;17.10;99.90;;;;;;5056775;28;20025;-85
2022/06/01 07:59:05;;;;;;;2.75;2.00;;;17.20;99.90;;;;;;5057167;28;20033;-85
2022/06/01 08:01:44;;;;;;;3.30;2.42;;;17.20;99.90;;;;;;5059261;28;20405;-85
2022/06/01 08:04:10;;;;;;;;;;;17.30;99.90;;;;;;5057551;28;20025;-85
2022/06/01 08:06:55;;;;;;;3.92;1.80;;;17.40;99.90;;;;;;5056312;28;19909;-85
2022/06/01 08:09:22;;;;;;;3.63;1.70;;;17.50;99.90;;;;;;5057665;28;20052;-85
2022/06/01 08:14:33;;;;;;;2.00;1.30;;;17.70;99.90;;;;;;5057675;28;20036;-85
2022/06/01 08:16:59;;;;;;;3.75;1.23;;;17.90;99.90;;;;;;5056539;28;20045;-85
2022/06/01 08:19:25;;;;;;;2.83;1.50;;;18.10;99.90;;;;;;5054972;28;20464;-85
2022/06/01 08:21:51;;;;;;;2.78;1.48;;;18.10;99.90;;;;;;5056185;28;20053;-85
2022/06/01 08:24:16;;;;;;;3.65;1.75;;;18.20;99.90;;;;;;5056090;28;20055;-85
2022/06/01 08:26:42;;;;;;;2.70;1.45;;;18.30;99.90;;;;;;5054771;28;20546;-85
2022/06/01 08:29:08;;;;;;;2.47;1.02;;;18.40;99.90;;;;;;5054813;28;20071;-85
2022/06/01 08:31:34;;;;;;;2.45;1.08;;;18.50;99.90;;;;;;5055329;28;20021;-85
2022/06/01 08:34:02;;;;;;;2.90;1.02;;;18.60;99.00;;;;;;5055870;28;20040;-85
2022/06/01 08:36:28;;;;;;;1.95;1.02;;;18.70;98.80;;;;;;5054729;28;20045;-85
2022/06/01 08:39:03;;;;;;;4.63;1.55;;;18.80;98.90;;;;;;5054719;28;20021;-85
2022/06/01 08:41:34;;;;;;;1.92;1.10;;;19.00;97.90;;;;;;5056184;28;20025;-85
2022/06/01 08:44:05;;;;;;;2.67;1.10;;;19.10;95.20;;;;;;5055389;28;20427;-86
2022/06/01 08:46:34;;;;;;;3.58;1.10;;;19.10;92.30;;;;;;5056979;28;20124;-85
2022/06/01 08:49:04;;;;;;;2.72;1.15;;;19.10;93.30;;;;;;5055960;28;20021;-85
2022/06/01 08:51:32;;;;;;;4.05;1.00;;;19.20;96.40;;;;;;5054726;28;20024;-85
2022/06/01 08:53:59;;;;;;;3.40;1.10;;;19.30;96.60;;;;;;5054528;28;20047;-86
2022/06/01 08:56:42;;;;;;;2.00;0.90;;;19.40;96.50;;;;;;5054169;28;20017;-86
2022/06/01 08:59:33;;;;;;;4.43;1.42;;;19.50;96.80;;;;;;5054597;28;20044;-85
2022/06/01 09:02:22;;;;;;;3.25;1.25;;;19.60;97.60;;;;;;5055734;28;20050;-85
2022/06/01 09:05:03;;;;;;;2.28;1.30;;;19.70;95.00;;;;;;5054164;28;20036;-85
2022/06/01 09:07:37;;;;;;;2.25;1.00;;;19.70;94.60;;;;;;5055399;28;20048;-85
2022/06/01 09:10:18;;;;;;;2.05;0.80;;;19.70;94.90;;;;;;5055668;28;20025;-85
2022/06/01 09:12:45;;;;;;;3.10;1.00;;;19.80;92.80;;;;;;5054485;28;20040;-85
2022/06/01 09:15:23;;;;;;;2.05;1.00;;;20.00;91.20;;;;;;5054562;28;20108;-85
2022/06/01 09:17:48;;;;;;;3.65;0.80;;;20.00;91.50;;;;;;5053802;28;20063;-85
2022/06/01 09:23:11;;;;;;;1.88;0.80;;;20.10;90.50;;;;;;5055626;28;20036;-85
2022/06/01 09:25:38;;;;;;;1.73;0.98;;;20.00;90.60;;;;;;5053589;28;20057;-85
2022/06/01 09:28:26;;;;;;;1.88;0.80;;;19.90;89.50;;;;;;5055277;28;20021;-85
2022/06/01 09:31:02;;;;;;;2.33;0.73;;;19.90;85.00;;;;;;5055476;28;20017;-85
2022/06/01 09:33:37;;;;;;;1.42;0.70;;;20.00;84.50;;;;;;5054659;28;20397;-85
2022/06/01 09:36:15;;;;;;;3.50;0.90;;;20.10;84.80;;;;;;5053881;28;20473;-85
2022/06/01 09:38:49;;;;;;;1.88;0.90;;;20.30;85.80;;;;;;5053891;28;20123;-85
2022/06/01 09:41:36;;;;;;;1.92;0.90;;;20.40;87.70;;;;;;5055155;28;20021;-84
2022/06/01 09:44:07;;;;;;;2.00;0.80;;;20.40;87.30;;;;;;5054897;28;20025;-84
2022/06/01 09:46:47;;;;;;;3.58;0.70;;;20.60;88.90;;;;;;5036760;28;20036;-85
2022/06/01 09:49:29;;;;;;;;;;;20.70;90.80;;;;;;5053869;28;20024;-85
2022/06/01 09:52:02;;;;;;;;;;;20.80;89.70;;;;;;5054525;28;20333;-85
2022/06/01 09:54:29;;;;;;;;;;;21.00;88.70;;;;;;5054727;28;19912;-84
2022/06/01 09:56:55;;;;;;;;;;;21.00;86.30;;;;;;5053758;28;19913;-84
2022/06/01 10:08:03;;;;;;;;;;;21.40;87.80;;;;;;5055636;28;19942;-84
2022/06/01 10:10:29;;;;;;;;;;;21.50;84.40;;;;;;5054609;28;20261;-84
2022/06/01 10:12:56;;;;;;;;;;;21.60;83.80;;;;;;5054496;28;19909;-84
2022/06/01 10:15:26;;;;;;;;;;;21.70;84.90;;;;;;5055780;28;19995;-84
2022/06/01 10:17:53;;;;;;;;;;;21.80;81.80;;;;;;5053690;28;19988;-84
2022/06/01 10:20:24;;;;;;;;;;;21.80;82.20;;;;;;5055676;28;19905;-84
2022/06/01 10:23:03;;;;;;;;;;;21.80;84.40;;;;;;5055713;28;19926;-85
2022/06/01 10:25:44;;;;;;;;;;;21.90;86.50;;;;;;5053997;28;20347;-84
2022/06/01 10:28:18;;;;;;;;;;;22.10;82.20;;;;;;5056596;28;19916;-84
2022/06/01 10:30:47;;;;;;;;;;;22.20;82.80;;;;;;5054917;28;19905;-84
2022/06/01 10:33:19;;;;;;;;;;;22.30;77.40;;;;;;5055410;28;19958;-84
2022/06/01 10:35:49;;;;;;;;;;;22.40;76.50;;;;;;5054981;28;19911;-84
2022/06/01 10:38:20;;;;;;;;;;;22.40;79.30;;;;;;5054012;28;19905;-84
2022/06/01 10:41:02;;;;;;;;;;;22.50;78.10;;;;;;5055553;28;19909;-84
2022/06/01 10:43:47;;;;;;;;;;;22.50;72.00;;;;;;5055331;28;19905;-84
2022/06/01 10:46:16;;;;;;;;;;;22.70;76.40;;;;;;5054790;28;19905;-83
2022/06/01 10:48:47;;;;;;;;;;;22.80;68.90;;;;;;5054901;28;19996;-83
2022/06/01 10:51:27;;;;;;;;;;;23.00;70.00;;;;;;5055517;28;20288;-84
2022/06/01 10:54:05;;;;;;;;;;;22.90;66.10;;;;;;5055823;28;20315;-85
2022/06/01 10:56:31;;;;;;;;;;;22.80;66.30;;;;;;5055452;28;19905;-83
2022/06/01 10:59:01;;;;;;;;;;;22.80;65.70;;;;;;5057506;28;19905;-83
2022/06/01 11:01:35;;;;;;;;;;;22.80;70.40;;;;;;5058785;28;19911;-83
2022/06/01 11:04:01;;;;;;;;;;;22.90;70.50;;;;;;5058200;28;20337;-82
2022/06/01 11:06:45;;;;;;;;;;;23.00;67.80;;;;;;5057224;28;19912;-83
2022/06/01 11:09:22;;;;;;;;;;;23.00;67.70;;;;;;5058630;28;19936;-83
2022/06/01 11:11:51;;;;;;;;;;;23.10;65.80;;;;;;5057387;28;19992;-83
2022/06/01 11:14:20;;;;;;;;;;;23.10;69.40;;;;;;5057247;28;19931;-83
2022/06/01 11:16:52;;;;;;;;;;;23.20;68.40;;;;;;5058140;28;20272;-83
2022/06/01 11:19:23;;;;;;;;;;;23.20;66.70;;;;;;5058235;28;20038;-83
2022/06/01 11:21:49;;;;;;;;;;;23.30;68.60;;;;;;5071716;28;20376;-83
2022/06/01 11:24:27;;;;;;;;;;;23.30;68.00;;;;;;5076116;28;19911;-82
2022/06/01 11:27:05;;;;;;;;;;;23.30;66.50;;;;;;5077203;28;20364;-82
2022/06/01 11:29:31;;;;;;;;;;;23.40;70.90;;;;;;5077372;28;19910;-82
2022/06/01 11:31:58;;;;;;;;;;;23.40;69.70;;;;;;5078530;28;19995;-82
2022/06/01 11:34:26;;;;;;;;;;;23.50;72.10;;;;;;5077842;28;19911;-83
2022/06/01 11:36:59;;;;;;;;;;;23.60;69.60;;;;;;5076175;28;19973;-84
2022/06/01 11:39:25;;;;;;;;;;;23.60;71.60;;;;;;5076063;28;19904;-83
2022/06/01 11:41:59;;;;;;;;;;;23.70;68.10;;;;;;5077764;28;20329;-83
2022/06/01 11:44:31;;;;;;;;;;;23.70;66.40;;;;;;5076048;28;19928;-82
2022/06/01 11:47:01;;;;;;;;;;;23.90;69.50;;;;;;5078021;28;20364;-83
2022/06/01 11:49:39;;;;;;;;;;;23.90;66.70;;;;;;5077979;28;20419;-82
2022/06/01 11:52:23;;;;;;;;;;;23.90;68.60;;;;;;5077182;28;20341;-82
2022/06/01 11:55:07;;;;;;;;;;;24.00;66.20;;;;;;5077723;28;19950;-82
2022/06/01 11:57:45;;;;;;;;;;;24.20;65.80;;;;;;5077652;28;19908;-82
2022/06/01 12:00:20;;;;;;;;;;;24.30;68.70;;;;;;5078239;28;19991;-82
2022/06/01 12:02:53;;;;;;;;;;;24.30;63.90;;;;;;5077885;28;19904;-82
2022/06/01 12:05:22;;;;;;;;;;;24.40;63.90;;;;;;5077596;28;19907;-82
2022/06/01 12:07:53;;;;;;;;;;;24.30;63.70;;;;;;5078011;28;19961;-82
2022/06/01 12:10:25;;;;;;;;;;;24.40;60.50;;;;;;5076137;28;19991;-84
2022/06/01 12:13:21;;;;;;;;;;;24.30;64.60;;;;;;5077766;28;19954;-82
2022/06/01 12:16:07;;;;;;;;;;;24.00;64.80;;;;;;5077348;28;19904;-80
2022/06/01 12:18:34;;;;;;;;;;;23.80;60.90;;;;;;5075509;28;19908;-80
2022/06/01 12:21:22;;;;;;;;;;;23.60;64.20;;;;;;5077545;28;19908;-81
2022/06/01 12:29:37;;;;;;;;;;;23.40;67.00;;;;;;5077027;28;20388;-81
2022/06/01 12:32:07;;;;;;;;;;;23.30;64.90;;;;;;5077180;28;19995;-81
2022/06/01 12:34:49;;;;;;;;;;;23.00;63.60;;;;;;5076630;28;20265;-81
2022/06/01 12:37:21;;;;;;;;;;;22.80;64.30;;;;;;5075321;28;19904;-81
2022/06/01 12:39:50;;;;;;;;;;;22.70;65.70;;;;;;5077759;28;19905;-81
2022/06/01 12:42:39;;;;;;;;;;;22.60;69.00;;;;;;5077224;28;20009;-81
2022/06/01 12:45:11;;;;;;;;;;;22.60;67.60;;;;;;5068999;28;20364;-81
2022/06/01 12:47:37;;;;;;;;;;;22.50;67.30;;;;;;5076843;28;19908;-80
2022/06/01 12:50:08;;;;;;;;;;;22.50;68.50;;;;;;5076053;28;19958;-80
2022/06/01 12:52:33;;;;;;;;;;;22.50;67.50;;;;;;5075518;28;19991;-80
2022/06/01 12:55:00;;;;;;;;;;;22.70;66.20;;;;;;5075896;28;19932;-80
2022/06/01 12:57:26;;;;;;;;;;;22.70;67.60;;;;;;5075969;28;19961;-80
2022/06/01 12:59:59;;;;;;;;;;;22.70;66.40;;;;;;5075654;28;20008;-80
2022/06/01 13:02:25;;;;;;;;;;;22.70;65.40;;;;;;5075614;28;19904;-80
2022/06/01 13:04:52;;;;;;;;;;;22.70;67.90;;;;;;5074060;28;19951;-80
2022/06/01 13:07:17;;;;;;;;;;;22.70;67.70;;;;;;5075365;28;19915;-80
2022/06/01 13:09:43;;;;;;;;;;;22.90;67.30;;;;;;5074093;28;19905;-80
2022/06/01 13:12:15;;;;;;;;;;;22.90;67.90;;;;;;5075306;28;20264;-80
2022/06/01 13:14:41;;;;;;;;;;;23.00;67.00;;;;;;5075257;28;19940;-80
2022/06/01 13:17:12;;;;;;;;;;;23.00;67.50;;;;;;5075555;28;19963;-80
2022/06/01 13:19:39;;;;;;;;;;;22.80;67.10;;;;;;5075766;28;19997;-80
2022/06/01 13:22:17;;;;;;;;;;;22.90;68.60;;;;;;5073644;28;19905;-80
2022/06/01 13:24:53;;;;;;;;;;;22.90;68.20;;;;;;5076612;28;19908;-80
2022/06/01 13:27:20;;;;;;;;;;;22.70;67.40;;;;;;5075068;28;19923;-81
2022/06/01 13:29:48;;;;;;;;;;;22.60;68.30;;;;;;5076061;28;19905;-80
2022/06/01 13:32:15;;;;;;;;;;;22.50;67.80;;;;;;5076533;28;20450;-80
2022/06/01 13:34:43;;;;;;;;;;;22.40;69.00;;;;;;5076910;28;19904;-80
2022/06/01 13:37:19;;;;;;;;;;;22.40;69.70;;;;;;5075909;28;19910;-80
2022/06/01 13:39:48;;;;;;;;;;;22.50;70.40;;;;;;5076977;28;19904;-80
2022/06/01 13:42:21;;;;;;;;;;;22.40;69.10;;;;;;5076696;28;19939;-80
2022/06/01 13:44:54;;;;;;;;;;;22.40;69.90;;;;;;5075406;28;19904;-80
2022/06/01 13:47:22;;;;;;;;;;;22.30;70.50;;;;;;5075379;28;19999;-80
2022/06/01 13:49:49;;;;;;;;;;;22.40;70.20;;;;;;5075728;28;19931;-79
2022/06/01 13:52:15;;;;;;;;;;;22.50;68.80;;;;;;5076624;28;19911;-80
2022/06/01 13:54:47;;;;;;;;;;;22.50;68.60;;;;;;5074916;28;19904;-80
2022/06/01 13:57:18;;;;;;;;;;;22.40;70.10;;;;;;5075531;28;20388;-80
2022/06/01 13:59:52;;;;;;;;;;;22.40;70.10;;;;;;5075360;28;20268;-80
2022/06/01 14:02:22;;;;;;;;;;;22.30;69.20;;;;;;5074749;28;19913;-80
2022/06/01 14:04:50;;;;;;;;;;;22.10;70.60;;;;;;5074762;28;20364;-80
2022/06/01 14:07:17;;;;;;;;;;;21.90;72.40;;;;;;5074866;28;19915;-80